Time;durP1;ratioP1;P1;durP2;ratioP2;P2;SDS_P1;SDS_P2;PMS_P1;PMS_P2;Temp;Humidity;BMP_temperature;BMP_pressure;BME280_temperature;BME280_humidity;BME280_pressure;Samples;Min_cycle;Max_cycle;Signal;HPM_P1;HPM_P2
2021/05/16 00:01:16;;;;;;;1.97;1.37;;;11.10;99.90;;;;;;5033227;28;20464;-69
2021/05/16 00:03:43;;;;;;;2.00;1.50;;;11.00;99.90;;;;;;5027999;28;20526;-70
2021/05/16 00:06:09;;;;;;;4.17;2.27;;;11.10;99.90;;;;;;5028130;28;20544;-70
2021/05/16 00:08:37;;;;;;;1.83;1.43;;;11.10;99.90;;;;;;5028640;28;20467;-70
2021/05/16 00:11:04;;;;;;;1.13;1.00;;;11.00;99.90;;;;;;5032205;28;20472;-70
2021/05/16 00:13:30;;;;;;;2.60;1.43;;;11.00;99.90;;;;;;5027460;28;20508;-70
2021/05/16 00:15:57;;;;;;;1.93;1.13;;;11.00;99.90;;;;;;5030246;28;20478;-70
2021/05/16 00:18:23;;;;;;;8.40;2.17;;;11.00;99.90;;;;;;5030949;28;20446;-70
2021/05/16 00:20:50;;;;;;;1.67;1.00;;;11.10;99.90;;;;;;5032318;28;20543;-70
2021/05/16 00:23:16;;;;;;;2.33;1.60;;;11.10;99.90;;;;;;5032846;28;20575;-69
2021/05/16 00:25:44;;;;;;;4.13;1.67;;;11.00;99.90;;;;;;5035410;28;21044;-70
2021/05/16 00:28:11;;;;;;;2.10;1.77;;;11.00;99.90;;;;;;5035062;28;20487;-70
2021/05/16 00:30:39;;;;;;;4.90;1.80;;;11.00;99.90;;;;;;5036375;28;20458;-70
2021/05/16 00:33:05;;;;;;;2.50;1.30;;;11.00;99.90;;;;;;5032715;28;20479;-71
2021/05/16 00:35:33;;;;;;;3.23;2.50;;;11.00;99.90;;;;;;5040612;28;20480;-70
2021/05/16 00:38:01;;;;;;;3.07;1.80;;;11.10;99.90;;;;;;5035568;28;20460;-70
2021/05/16 00:40:29;;;;;;;6.20;2.00;;;11.10;99.90;;;;;;5031112;28;20892;-70
2021/05/16 00:42:56;;;;;;;4.80;1.87;;;11.20;99.90;;;;;;5030270;28;20475;-70
2021/05/16 00:45:25;;;;;;;3.23;1.57;;;11.10;99.90;;;;;;5036870;28;20511;-70
2021/05/16 00:47:53;;;;;;;4.87;2.33;;;11.20;99.90;;;;;;5026316;28;20467;-70
2021/05/16 00:50:22;;;;;;;3.33;1.60;;;11.20;99.90;;;;;;5037501;28;20467;-69
2021/05/16 00:52:49;;;;;;;1.20;1.03;;;11.20;99.90;;;;;;5032864;28;20480;-70
2021/05/16 00:55:17;;;;;;;6.93;1.77;;;11.20;99.90;;;;;;5035729;28;20525;-70
2021/05/16 00:57:44;;;;;;;2.63;1.20;;;11.20;99.90;;;;;;5039948;28;20491;-70
2021/05/16 01:00:14;;;;;;;2.60;1.40;;;11.30;99.90;;;;;;5030591;28;20495;-70
2021/05/16 01:02:41;;;;;;;2.80;1.73;;;11.30;99.90;;;;;;5031887;28;20500;-70
2021/05/16 01:05:09;;;;;;;3.73;2.37;;;11.30;99.90;;;;;;5035713;28;20514;-69
2021/05/16 01:07:37;;;;;;;1.80;1.50;;;11.30;99.90;;;;;;5030401;28;20557;-69
2021/05/16 01:10:07;;;;;;;1.83;1.50;;;11.40;99.90;;;;;;5035598;28;20469;-70
2021/05/16 01:12:40;;;;;;;2.13;1.40;;;11.30;99.90;;;;;;5031993;28;20510;-70
2021/05/16 01:15:09;;;;;;;7.97;1.90;;;11.30;99.90;;;;;;5032374;28;20849;-70
2021/05/16 01:17:37;;;;;;;7.00;1.57;;;11.40;99.90;;;;;;5030299;28;20974;-70
2021/05/16 01:20:05;;;;;;;5.10;1.60;;;11.30;99.90;;;;;;5035459;28;20577;-70
2021/05/16 01:22:33;;;;;;;6.70;1.83;;;11.30;99.90;;;;;;5026614;28;20582;-70
2021/05/16 01:24:59;;;;;;;3.73;2.03;;;11.20;99.90;;;;;;5029861;28;21812;-70
2021/05/16 01:27:26;;;;;;;6.30;2.20;;;11.30;99.90;;;;;;5037405;28;21162;-69
2021/05/16 01:29:52;;;;;;;4.60;1.67;;;11.40;99.90;;;;;;5041035;28;20582;-70
2021/05/16 01:32:21;;;;;;;4.93;1.83;;;11.20;99.90;;;;;;5034978;28;20563;-69
2021/05/16 01:34:48;;;;;;;10.10;2.10;;;11.20;99.90;;;;;;5037322;28;20463;-69
2021/05/16 01:37:15;;;;;;;6.13;2.77;;;11.20;99.90;;;;;;5038117;28;20442;-69
2021/05/16 01:39:45;;;;;;;3.20;1.47;;;11.30;99.90;;;;;;5040062;28;20487;-69
2021/05/16 01:42:12;;;;;;;2.67;1.60;;;11.20;99.90;;;;;;5035687;28;20540;-70
2021/05/16 01:44:39;;;;;;;2.00;1.10;;;11.20;99.90;;;;;;5035777;28;20493;-69
2021/05/16 01:47:06;;;;;;;8.87;2.07;;;11.30;99.90;;;;;;5036023;28;20456;-69
2021/05/16 01:49:42;;;;;;;2.53;1.60;;;11.30;99.90;;;;;;5036860;28;20913;-69
2021/05/16 01:52:10;;;;;;;7.20;1.57;;;11.40;99.90;;;;;;5034190;28;20514;-71
2021/05/16 01:54:36;;;;;;;3.67;1.87;;;11.30;99.90;;;;;;5034881;28;20532;-70
2021/05/16 01:57:06;;;;;;;2.80;1.67;;;11.30;99.90;;;;;;5035816;28;20847;-71
2021/05/16 01:59:33;;;;;;;3.10;1.80;;;11.30;99.90;;;;;;5031770;28;20474;-71
2021/05/16 02:02:01;;;;;;;1.43;1.30;;;11.30;99.90;;;;;;5038599;28;20472;-71
2021/05/16 02:04:28;;;;;;;9.13;2.43;;;11.40;99.90;;;;;;5036774;28;20483;-71
2021/05/16 02:06:55;;;;;;;1.67;1.40;;;11.40;99.90;;;;;;5035043;28;20463;-71
2021/05/16 02:09:22;;;;;;;4.60;0.83;;;11.40;99.90;;;;;;5035905;28;20456;-69
2021/05/16 02:11:49;;;;;;;7.23;1.80;;;11.40;99.90;;;;;;5038164;28;20956;-71
2021/05/16 02:14:24;;;;;;;3.40;1.47;;;11.20;99.90;;;;;;5040629;28;20430;-69
2021/05/16 02:16:51;;;;;;;2.50;1.47;;;11.20;99.90;;;;;;5040604;28;20448;-68
2021/05/16 02:19:17;;;;;;;4.00;1.60;;;11.30;99.90;;;;;;5036934;28;20543;-68
2021/05/16 02:21:44;;;;;;;2.80;1.63;;;11.30;99.90;;;;;;5037804;28;20495;-68
2021/05/16 02:24:11;;;;;;;3.27;1.33;;;11.40;99.90;;;;;;5039072;28;20442;-68
2021/05/16 02:26:38;;;;;;;7.47;1.77;;;11.30;99.90;;;;;;5032995;28;20533;-69
2021/05/16 02:29:06;;;;;;;2.40;2.20;;;11.30;99.90;;;;;;5032843;28;20550;-69
2021/05/16 02:31:33;;;;;;;1.67;1.57;;;11.30;99.90;;;;;;5038460;28;20542;-69
2021/05/16 02:34:01;;;;;;;13.90;2.00;;;11.30;99.90;;;;;;5036098;28;20459;-69
2021/05/16 02:36:27;;;;;;;3.87;1.57;;;11.30;99.90;;;;;;5038667;28;20550;-70
2021/05/16 02:38:54;;;;;;;9.13;2.70;;;11.20;99.90;;;;;;5033886;28;20471;-69
2021/05/16 02:41:20;;;;;;;1.23;1.13;;;11.20;99.90;;;;;;5038671;28;20489;-69
2021/05/16 02:43:47;;;;;;;2.40;1.67;;;11.20;99.90;;;;;;5035946;28;20540;-70
2021/05/16 02:46:13;;;;;;;6.10;1.67;;;11.10;99.90;;;;;;5037557;28;20820;-69
2021/05/16 02:48:41;;;;;;;3.77;1.70;;;11.20;99.90;;;;;;5032942;28;20538;-70
2021/05/16 02:51:07;;;;;;;10.50;2.20;;;11.10;99.90;;;;;;5038980;28;20544;-69
2021/05/16 02:53:34;;;;;;;3.47;1.53;;;11.20;99.90;;;;;;5037604;28;20813;-69
2021/05/16 02:56:01;;;;;;;3.57;1.83;;;11.20;99.90;;;;;;5040739;28;20517;-70
2021/05/16 02:58:27;;;;;;;6.70;1.77;;;11.30;99.90;;;;;;5036849;28;20427;-69
2021/05/16 03:00:54;;;;;;;2.30;1.77;;;11.30;99.90;;;;;;5035816;28;20460;-69
2021/05/16 03:03:20;;;;;;;7.50;1.37;;;11.30;99.90;;;;;;5036473;28;20555;-69
2021/05/16 03:05:48;;;;;;;1.17;1.03;;;11.20;99.90;;;;;;5035481;28;20570;-70
2021/05/16 03:08:14;;;;;;;2.50;1.33;;;11.20;99.90;;;;;;5036206;28;20586;-70
2021/05/16 03:10:41;;;;;;;1.40;1.10;;;11.20;99.90;;;;;;5037626;28;20484;-70
2021/05/16 03:13:07;;;;;;;3.77;1.53;;;11.30;99.90;;;;;;5036899;28;20507;-69
2021/05/16 03:15:34;;;;;;;2.03;1.40;;;11.20;99.90;;;;;;5031725;28;20464;-69
2021/05/16 03:18:00;;;;;;;7.70;1.40;;;11.20;99.90;;;;;;5039879;28;20463;-69
2021/05/16 03:20:27;;;;;;;1.40;1.30;;;11.20;99.90;;;;;;5041784;28;21113;-68
2021/05/16 03:22:54;;;;;;;5.30;2.57;;;11.20;99.90;;;;;;5034259;28;20572;-69
2021/05/16 03:25:20;;;;;;;3.03;1.33;;;11.20;99.90;;;;;;5040437;28;20515;-70
2021/05/16 03:27:47;;;;;;;8.20;1.90;;;11.20;99.90;;;;;;5040119;28;20459;-70
2021/05/16 03:30:14;;;;;;;5.90;2.10;;;11.20;99.90;;;;;;5054606;28;20456;-69
2021/05/16 03:32:41;;;;;;;3.10;1.60;;;11.20;99.90;;;;;;5062579;28;20490;-70
2021/05/16 03:35:10;;;;;;;2.70;1.40;;;11.20;99.90;;;;;;5054700;28;20447;-69
2021/05/16 03:37:37;;;;;;;5.00;1.70;;;11.30;99.90;;;;;;5042771;28;20463;-69
2021/05/16 03:40:06;;;;;;;2.60;1.57;;;11.20;99.90;;;;;;5035399;28;20492;-69
2021/05/16 03:42:32;;;;;;;8.77;1.83;;;11.30;99.90;;;;;;5036528;28;20551;-69
2021/05/16 03:44:59;;;;;;;5.80;1.53;;;11.30;99.90;;;;;;5042789;28;20503;-69
2021/05/16 03:47:25;;;;;;;2.70;1.97;;;11.20;99.90;;;;;;5031166;28;20874;-69
2021/05/16 03:49:52;;;;;;;2.70;1.43;;;11.20;99.90;;;;;;5039921;28;20595;-68
2021/05/16 03:52:19;;;;;;;8.30;1.53;;;11.20;99.90;;;;;;5039050;28;20480;-69
2021/05/16 03:54:46;;;;;;;5.30;1.73;;;11.20;99.90;;;;;;5040672;28;20467;-69
2021/05/16 03:57:14;;;;;;;4.50;1.40;;;11.30;99.90;;;;;;5040475;28;20462;-69
2021/05/16 03:59:40;;;;;;;6.47;1.97;;;11.30;99.90;;;;;;5043099;28;20547;-69
2021/05/16 04:02:07;;;;;;;5.40;2.00;;;11.30;99.90;;;;;;5037462;28;20536;-69
2021/05/16 04:04:33;;;;;;;9.93;3.33;;;11.40;99.90;;;;;;5034846;28;20895;-68
2021/05/16 04:06:59;;;;;;;3.10;1.63;;;11.40;99.90;;;;;;5038625;28;20869;-68
2021/05/16 04:09:26;;;;;;;8.30;2.17;;;11.20;99.90;;;;;;5034994;28;20459;-69
2021/05/16 04:11:53;;;;;;;7.30;2.33;;;11.30;99.90;;;;;;5031502;28;20514;-68
2021/05/16 04:14:22;;;;;;;7.30;1.50;;;11.30;99.90;;;;;;5032128;28;20463;-68
2021/05/16 04:16:49;;;;;;;10.80;4.10;;;11.40;99.90;;;;;;5034898;28;20568;-69
2021/05/16 04:19:15;;;;;;;5.00;1.93;;;11.20;99.90;;;;;;5039569;28;20495;-68
2021/05/16 04:21:42;;;;;;;5.63;2.67;;;11.10;99.90;;;;;;5037430;28;20484;-68
2021/05/16 04:24:09;;;;;;;7.53;1.70;;;11.30;99.90;;;;;;5037234;28;20491;-69
2021/05/16 04:26:36;;;;;;;10.73;2.23;;;11.30;99.90;;;;;;5040236;28;20579;-69
2021/05/16 04:29:02;;;;;;;4.47;1.90;;;11.20;99.90;;;;;;5039591;28;20551;-69
2021/05/16 04:31:30;;;;;;;7.47;2.63;;;11.40;99.90;;;;;;5042777;28;21031;-69
2021/05/16 04:33:56;;;;;;;4.90;1.77;;;11.40;99.90;;;;;;5035100;28;20995;-69
2021/05/16 04:36:23;;;;;;;5.93;3.23;;;11.40;99.90;;;;;;5040374;28;20455;-69
2021/05/16 04:38:49;;;;;;;1.87;1.53;;;11.50;99.90;;;;;;5039068;28;20491;-69
2021/05/16 04:41:16;;;;;;;2.90;1.83;;;11.50;99.90;;;;;;5040717;28;20598;-69
2021/05/16 04:43:42;;;;;;;6.17;1.37;;;11.60;99.90;;;;;;5039635;28;20541;-69
2021/05/16 04:46:09;;;;;;;4.50;1.40;;;11.50;99.90;;;;;;5033778;28;20534;-69
2021/05/16 04:48:36;;;;;;;4.50;2.63;;;11.60;99.90;;;;;;5039468;28;20633;-69
2021/05/16 04:51:04;;;;;;;10.00;1.90;;;11.60;99.90;;;;;;5037090;28;20456;-69
2021/05/16 04:53:33;;;;;;;2.20;1.60;;;11.60;99.90;;;;;;5031111;28;20457;-69
2021/05/16 04:55:59;;;;;;;4.30;1.20;;;11.60;99.90;;;;;;5040108;28;20426;-69
2021/05/16 04:58:26;;;;;;;4.33;1.30;;;11.70;99.90;;;;;;5037522;28;20505;-69
2021/05/16 05:00:52;;;;;;;6.93;1.77;;;11.70;99.90;;;;;;5038249;28;20455;-68
2021/05/16 05:03:21;;;;;;;6.53;2.30;;;11.60;99.90;;;;;;5037159;28;20475;-68
2021/05/16 05:05:51;;;;;;;1.57;1.47;;;11.60;99.90;;;;;;5038372;28;21155;-68
2021/05/16 05:08:17;;;;;;;7.53;2.30;;;11.60;99.90;;;;;;5042474;28;20548;-68
2021/05/16 05:10:43;;;;;;;3.53;2.80;;;11.70;99.90;;;;;;5038309;28;20492;-68
2021/05/16 05:13:10;;;;;;;3.73;1.43;;;12.00;99.90;;;;;;5037210;28;20538;-69
2021/05/16 05:15:36;;;;;;;9.57;2.90;;;12.20;99.90;;;;;;5035998;28;20582;-68
2021/05/16 05:18:03;;;;;;;2.53;1.90;;;12.20;99.90;;;;;;5033219;28;20459;-70
2021/05/16 05:20:29;;;;;;;1.53;1.33;;;12.10;99.90;;;;;;5035451;28;20575;-69
2021/05/16 05:22:57;;;;;;;2.47;1.20;;;12.20;99.90;;;;;;5028003;28;20479;-68
2021/05/16 05:25:24;;;;;;;7.90;1.80;;;12.10;99.90;;;;;;5032718;28;20567;-68
2021/05/16 05:27:50;;;;;;;3.10;1.20;;;12.10;99.90;;;;;;5034615;28;20995;-69
2021/05/16 05:30:17;;;;;;;2.93;1.10;;;12.00;99.90;;;;;;5028979;28;20517;-68
2021/05/16 05:32:43;;;;;;;3.00;1.80;;;12.00;99.90;;;;;;5035660;28;20483;-68
2021/05/16 05:35:11;;;;;;;9.97;1.73;;;12.00;99.90;;;;;;5031049;28;20874;-69
2021/05/16 05:37:37;;;;;;;3.90;2.00;;;12.00;99.90;;;;;;5033813;28;20451;-68
2021/05/16 05:40:06;;;;;;;3.27;1.73;;;12.00;99.90;;;;;;5039118;28;20459;-68
2021/05/16 05:42:32;;;;;;;3.30;1.83;;;12.10;99.90;;;;;;5031163;28;20472;-69
2021/05/16 05:44:59;;;;;;;3.30;1.90;;;12.10;99.90;;;;;;5038570;28;20526;-68
2021/05/16 05:47:25;;;;;;;2.87;2.00;;;12.00;99.90;;;;;;5035123;28;20490;-69
2021/05/16 05:49:53;;;;;;;5.00;2.87;;;12.00;99.90;;;;;;5037113;28;20455;-69
2021/05/16 05:52:19;;;;;;;4.70;3.07;;;12.00;99.90;;;;;;5033677;28;20480;-69
2021/05/16 05:54:46;;;;;;;8.27;3.73;;;12.00;99.90;;;;;;5038121;28;20582;-69
2021/05/16 05:57:13;;;;;;;4.77;3.30;;;12.00;99.90;;;;;;5038445;28;20808;-70
2021/05/16 05:59:40;;;;;;;6.00;2.83;;;12.00;99.90;;;;;;5033910;28;20898;-69
2021/05/16 06:02:06;;;;;;;4.90;2.50;;;11.90;99.90;;;;;;5040756;28;20484;-68
2021/05/16 06:04:33;;;;;;;3.97;3.00;;;12.00;99.90;;;;;;5036997;28;20449;-68
2021/05/16 06:06:59;;;;;;;8.87;2.90;;;12.00;99.90;;;;;;5040619;28;20460;-68
2021/05/16 06:09:26;;;;;;;6.27;2.77;;;12.10;99.90;;;;;;5030812;28;20543;-68
2021/05/16 06:11:52;;;;;;;3.40;2.90;;;12.10;99.90;;;;;;5044244;28;20724;-68
2021/05/16 06:14:19;;;;;;;16.17;2.50;;;12.20;99.90;;;;;;5044236;28;20498;-69
2021/05/16 06:16:46;;;;;;;7.80;2.47;;;12.30;99.90;;;;;;5043926;28;20443;-68
2021/05/16 06:19:12;;;;;;;10.30;2.90;;;12.30;99.90;;;;;;5052056;28;20443;-68
2021/05/16 06:21:39;;;;;;;7.37;3.43;;;12.40;99.90;;;;;;5048144;28;20521;-68
2021/05/16 06:24:07;;;;;;;6.00;3.00;;;12.40;99.90;;;;;;5042148;28;20499;-68
2021/05/16 06:26:36;;;;;;;8.03;4.50;;;12.50;99.90;;;;;;5044144;28;20483;-69
2021/05/16 06:29:03;;;;;;;6.07;3.20;;;12.60;99.90;;;;;;5053845;28;20463;-69
2021/05/16 06:31:30;;;;;;;4.50;3.77;;;12.80;99.90;;;;;;5042119;28;21023;-68
2021/05/16 06:33:57;;;;;;;10.30;3.90;;;12.70;99.90;;;;;;5048912;28;20479;-69
2021/05/16 06:36:24;;;;;;;10.63;4.10;;;12.60;99.90;;;;;;5053580;28;20478;-68
2021/05/16 06:38:50;;;;;;;10.70;6.10;;;12.60;99.90;;;;;;5044696;28;20545;-68
2021/05/16 06:41:17;;;;;;;5.07;3.10;;;12.80;99.90;;;;;;5048686;28;20460;-68
2021/05/16 06:43:43;;;;;;;4.23;1.73;;;12.80;99.90;;;;;;5054630;28;20514;-69
2021/05/16 06:46:10;;;;;;;12.43;2.70;;;13.10;99.90;;;;;;5055390;28;20487;-70
2021/05/16 06:48:37;;;;;;;8.57;3.60;;;12.90;99.90;;;;;;5043833;28;20462;-70
2021/05/16 06:51:05;;;;;;;6.00;4.47;;;12.80;99.90;;;;;;5056344;28;20451;-67
2021/05/16 06:53:31;;;;;;;9.90;4.50;;;12.80;99.90;;;;;;5043004;28;21022;-67
2021/05/16 06:55:58;;;;;;;9.07;4.13;;;13.10;99.90;;;;;;5034498;28;20907;-69
2021/05/16 06:58:25;;;;;;;3.17;2.13;;;13.60;99.90;;;;;;5045617;28;20475;-68
2021/05/16 07:00:51;;;;;;;4.60;3.10;;;14.20;99.90;;;;;;5039700;28;21043;-69
2021/05/16 07:03:18;;;;;;;2.60;2.40;;;14.50;99.90;;;;;;5035479;28;20575;-68
2021/05/16 07:05:46;;;;;;;6.93;3.47;;;14.60;99.90;;;;;;5039073;28;20479;-69
2021/05/16 07:08:12;;;;;;;11.80;4.30;;;14.50;99.90;;;;;;5046856;28;20521;-69
2021/05/16 07:10:38;;;;;;;7.53;4.03;;;14.80;99.90;;;;;;5057456;28;20985;-69
2021/05/16 07:13:05;;;;;;;3.23;2.20;;;15.80;99.90;;;;;;5045867;28;20483;-70
2021/05/16 07:15:33;;;;;;;4.70;3.40;;;15.90;99.90;;;;;;5031805;28;21441;-69
2021/05/16 07:17:59;;;;;;;3.40;2.63;;;15.90;99.90;;;;;;5046538;28;20467;-68
2021/05/16 07:20:26;;;;;;;5.03;4.17;;;15.30;99.90;;;;;;5044309;28;20544;-68
2021/05/16 07:22:53;;;;;;;8.60;5.70;;;14.70;99.90;;;;;;5030117;28;20587;-68
2021/05/16 07:25:20;;;;;;;7.07;3.50;;;14.60;99.90;;;;;;5044847;28;20796;-69
2021/05/16 07:27:47;;;;;;;6.90;3.77;;;14.60;99.90;;;;;;5036372;28;21437;-69
2021/05/16 07:30:15;;;;;;;5.57;2.90;;;14.60;99.90;;;;;;5033751;28;20464;-69
2021/05/16 07:32:42;;;;;;;12.83;3.63;;;14.60;99.90;;;;;;5025922;28;20594;-69
2021/05/16 07:35:10;;;;;;;8.73;2.47;;;14.50;99.90;;;;;;5030166;28;20451;-69
2021/05/16 07:37:37;;;;;;;4.07;2.60;;;14.40;99.90;;;;;;5025475;28;20456;-71
2021/05/16 07:40:06;;;;;;;4.87;1.60;;;14.10;99.90;;;;;;5029168;28;20870;-69
2021/05/16 07:42:33;;;;;;;3.83;2.07;;;14.00;99.90;;;;;;5026198;28;20488;-69
2021/05/16 07:45:00;;;;;;;9.10;2.83;;;14.00;99.90;;;;;;5028948;28;20511;-69
2021/05/16 07:47:26;;;;;;;3.10;2.50;;;14.00;99.90;;;;;;5021132;28;21195;-69
2021/05/16 07:49:52;;;;;;;5.43;1.63;;;14.10;99.90;;;;;;5025989;28;20460;-69
2021/05/16 07:52:19;;;;;;;1.50;1.40;;;14.50;99.90;;;;;;5030547;28;20574;-69
2021/05/16 07:54:45;;;;;;;4.33;2.00;;;14.80;99.90;;;;;;5031998;28;20550;-69
2021/05/16 07:57:13;;;;;;;2.33;1.93;;;14.90;99.90;;;;;;5031991;28;20452;-70
2021/05/16 07:59:40;;;;;;;4.27;2.10;;;14.70;99.90;;;;;;5026474;28;20814;-69
2021/05/16 08:02:06;;;;;;;2.60;1.50;;;14.60;99.90;;;;;;5021222;28;20463;-70
2021/05/16 08:04:32;;;;;;;5.93;2.33;;;14.50;99.90;;;;;;5024143;28;21032;-69
2021/05/16 08:06:59;;;;;;;6.13;2.23;;;14.40;99.90;;;;;;5031559;28;20484;-70
2021/05/16 08:09:26;;;;;;;5.30;2.10;;;14.20;99.90;;;;;;5033694;28;20476;-69
2021/05/16 08:11:54;;;;;;;5.73;2.50;;;14.20;99.90;;;;;;5031966;28;20460;-70
2021/05/16 08:14:21;;;;;;;3.97;1.43;;;14.20;99.90;;;;;;5031541;28;20459;-69
2021/05/16 08:16:49;;;;;;;5.50;1.80;;;14.10;99.90;;;;;;5033021;28;20527;-70
2021/05/16 08:19:15;;;;;;;8.03;2.53;;;14.10;99.90;;;;;;5025391;28;20494;-69
2021/05/16 08:21:41;;;;;;;3.47;1.63;;;14.20;99.90;;;;;;5025826;28;20478;-70
2021/05/16 08:24:09;;;;;;;6.27;2.50;;;14.20;99.90;;;;;;5036168;28;20462;-70
2021/05/16 08:26:36;;;;;;;15.83;2.70;;;13.80;99.90;;;;;;5036280;28;20503;-69
2021/05/16 08:29:04;;;;;;;9.80;2.43;;;13.80;99.90;;;;;;5043786;28;20461;-69
2021/05/16 08:31:35;;;;;;;5.70;2.20;;;13.60;99.90;;;;;;5038868;28;20904;-69
2021/05/16 08:34:02;;;;;;;4.30;2.13;;;13.60;99.90;;;;;;5036013;28;20544;-69
2021/05/16 08:36:32;;;;;;;3.10;2.00;;;13.60;99.90;;;;;;5040223;28;20456;-69
2021/05/16 08:38:58;;;;;;;13.93;2.70;;;13.80;99.90;;;;;;5058186;28;20523;-69
2021/05/16 08:41:25;;;;;;;17.90;1.67;;;14.00;99.90;;;;;;5054322;28;20471;-69
2021/05/16 08:43:51;;;;;;;4.77;2.10;;;14.20;99.90;;;;;;5045798;28;20487;-69
2021/05/16 08:46:18;;;;;;;3.47;2.07;;;14.10;99.90;;;;;;5050656;28;20514;-68
2021/05/16 08:48:45;;;;;;;1.90;1.70;;;14.10;99.90;;;;;;5046771;28;20451;-69
2021/05/16 08:51:14;;;;;;;9.70;2.20;;;15.20;99.90;;;;;;5049476;28;20456;-71
2021/05/16 08:53:41;;;;;;;3.30;1.67;;;15.90;99.90;;;;;;5038894;28;20475;-70
2021/05/16 08:56:09;;;;;;;4.60;2.03;;;16.30;99.90;;;;;;5043802;28;20488;-69
2021/05/16 08:58:37;;;;;;;2.13;1.90;;;16.40;99.90;;;;;;5040728;28;20499;-69
2021/05/16 09:01:17;;;;;;;4.63;2.50;;;17.00;99.90;;;;;;5030697;28;20480;-68
2021/05/16 09:03:44;;;;;;;7.47;2.10;;;17.50;99.90;;;;;;5032185;28;20475;-70
2021/05/16 09:06:11;;;;;;;3.00;1.80;;;17.70;99.90;;;;;;5025290;28;21004;-70
2021/05/16 09:08:37;;;;;;;4.50;2.57;;;17.10;99.90;;;;;;5034804;28;20456;-69
2021/05/16 09:11:04;;;;;;;2.23;2.03;;;16.70;99.90;;;;;;5035983;28;20462;-68
2021/05/16 09:13:31;;;;;;;3.43;1.97;;;16.10;99.90;;;;;;5029659;28;21106;-68
2021/05/16 09:16:16;;;;;;;2.73;2.50;;;15.90;99.90;;;;;;5028863;28;20551;-68
2021/05/16 09:18:46;;;;;;;3.57;1.70;;;16.30;99.90;;;;;;5037221;28;20468;-69
2021/05/16 09:21:31;;;;;;;4.73;1.90;;;17.10;99.90;;;;;;5029187;28;20454;-68
2021/05/16 09:24:13;;;;;;;3.87;2.20;;;18.10;99.90;;;;;;5034114;28;20498;-69
2021/05/16 09:26:52;;;;;;;7.73;2.50;;;19.40;99.90;;;;;;5032531;28;20468;-68
2021/05/16 09:29:27;;;;;;;4.63;2.63;;;19.40;99.90;;;;;;5034090;28;21430;-68
2021/05/16 09:31:54;;;;;;;5.90;1.43;;;18.40;99.90;;;;;;5028799;28;20542;-69
2021/05/16 09:34:22;;;;;;;5.43;1.60;;;18.00;99.90;;;;;;5036093;28;20547;-68
2021/05/16 09:36:49;;;;;;;2.27;1.53;;;16.80;99.90;;;;;;5029230;28;20483;-68
2021/05/16 09:39:17;;;;;;;5.03;2.20;;;16.10;99.90;;;;;;5035883;28;20487;-68
2021/05/16 09:41:59;;;;;;;4.83;1.63;;;15.50;99.90;;;;;;5035545;28;20464;-69
2021/05/16 09:44:33;;;;;;;5.70;1.90;;;15.00;99.90;;;;;;5025743;28;20459;-69
2021/05/16 09:47:11;;;;;;;2.13;1.40;;;14.70;99.90;;;;;;5030232;28;20476;-67
2021/05/16 09:49:38;;;;;;;3.80;1.20;;;15.00;99.90;;;;;;5034962;28;20978;-68
2021/05/16 09:52:08;;;;;;;4.23;1.40;;;15.40;99.90;;;;;;5036019;28;20518;-68
2021/05/16 09:54:56;;;;;;;5.00;1.30;;;16.20;99.90;;;;;;5033345;28;20462;-68
2021/05/16 09:57:23;;;;;;;10.37;3.70;;;18.10;99.90;;;;;;5048474;28;20455;-68
2021/05/16 09:59:50;;;;;;;1.97;1.60;;;19.70;99.90;;;;;;5035340;28;20550;-68
2021/05/16 10:02:17;;;;;;;4.87;1.90;;;19.60;99.90;;;;;;5045927;28;20873;-68
2021/05/16 10:04:45;;;;;;;6.43;1.80;;;20.60;99.90;;;;;;5051515;28;20485;-68
2021/05/16 10:07:11;;;;;;;4.43;2.10;;;21.70;99.90;;;;;;5036021;28;20921;-69
2021/05/16 10:09:38;;;;;;;7.33;1.93;;;21.70;99.90;;;;;;5046084;28;20482;-69
2021/05/16 10:12:05;;;;;;;2.00;1.80;;;21.80;99.90;;;;;;5029667;28;22646;-68
2021/05/16 10:14:37;;;;;;;4.30;1.77;;;22.20;99.90;;;;;;5033033;28;20485;-68
2021/05/16 10:17:05;;;;;;;2.60;1.13;;;22.50;99.90;;;;;;5028573;28;20525;-68
2021/05/16 10:19:35;;;;;;;2.07;1.67;;;22.20;99.90;;;;;;5032018;28;20496;-69
2021/05/16 10:22:14;;;;;;;7.83;1.70;;;22.10;99.90;;;;;;5029959;28;20517;-68
2021/05/16 10:24:42;;;;;;;2.17;1.50;;;22.20;99.90;;;;;;5033942;28;20903;-68
2021/05/16 10:27:23;;;;;;;5.30;1.70;;;21.80;99.90;;;;;;5044951;28;21084;-68
2021/05/16 10:29:52;;;;;;;2.27;1.23;;;21.90;99.90;;;;;;5043129;28;20483;-68
2021/05/16 10:32:32;;;;;;;3.00;1.73;;;22.20;99.90;;;;;;5041187;28;20478;-69
2021/05/16 10:35:00;;;;;;;4.30;1.30;;;22.30;99.90;;;;;;5038361;28;20487;-69
2021/05/16 10:37:50;;;;;;;4.63;1.60;;;21.50;99.90;;;;;;5044480;28;20463;-69
2021/05/16 10:40:32;;;;;;;3.13;1.87;;;20.20;99.90;;;;;;5048529;28;20472;-69
2021/05/16 10:43:01;;;;;;;3.00;2.23;;;19.10;99.90;;;;;;5041642;28;21005;-69
2021/05/16 10:45:34;;;;;;;3.00;1.90;;;17.90;99.90;;;;;;5033421;28;20568;-69
2021/05/16 10:48:09;;;;;;;3.77;1.93;;;16.70;99.90;;;;;;5031769;28;20486;-71
2021/05/16 10:50:50;;;;;;;7.77;1.60;;;15.90;99.90;;;;;;5033990;28;20487;-69
2021/05/16 10:53:26;;;;;;;1.80;1.53;;;16.10;99.90;;;;;;5033221;28;20851;-69
2021/05/16 10:56:03;;;;;;;3.00;2.33;;;16.30;99.90;;;;;;5035799;28;20453;-68
2021/05/16 10:58:58;;;;;;;3.60;2.43;;;16.80;99.90;;;;;;5039300;28;20955;-69
2021/05/16 11:01:40;;;;;;;6.90;1.70;;;17.20;99.90;;;;;;5034165;28;20467;-69
2021/05/16 11:04:08;;;;;;;7.00;1.70;;;17.10;99.90;;;;;;5038000;28;20535;-69
2021/05/16 11:07:00;;;;;;;4.80;2.23;;;17.10;99.90;;;;;;5045609;28;20471;-69
2021/05/16 11:09:34;;;;;;;3.13;1.47;;;17.80;99.90;;;;;;5035215;28;20459;-69
2021/05/16 11:12:01;;;;;;;2.20;1.83;;;18.10;99.90;;;;;;5034032;28;20485;-69
2021/05/16 11:14:39;;;;;;;5.43;1.80;;;18.10;99.90;;;;;;5033147;28;20455;-69
2021/05/16 11:17:09;;;;;;;1.93;1.30;;;18.00;99.90;;;;;;5033439;28;20991;-69
2021/05/16 11:19:36;;;;;;;1.77;1.20;;;18.00;99.90;;;;;;5034218;28;21196;-69
2021/05/16 11:22:15;;;;;;;7.07;1.97;;;18.00;99.90;;;;;;5035638;28;20502;-70
2021/05/16 11:24:52;;;;;;;5.50;2.30;;;18.00;99.90;;;;;;5029668;28;20777;-69
2021/05/16 11:27:27;;;;;;;2.37;1.20;;;17.80;99.90;;;;;;5038476;28;21438;-69
2021/05/16 11:29:59;;;;;;;1.07;0.83;;;17.70;99.90;;;;;;5032338;28;20804;-69
2021/05/16 11:32:31;;;;;;;2.33;1.13;;;16.90;99.90;;;;;;5037725;28;20550;-69
2021/05/16 11:35:07;;;;;;;1.50;0.90;;;16.20;99.90;;;;;;5030994;28;20460;-69
2021/05/16 11:37:34;;;;;;;1.20;0.90;;;15.60;99.90;;;;;;5033873;28;20516;-69
2021/05/16 11:40:23;;;;;;;2.40;1.30;;;15.80;99.90;;;;;;5043240;28;20467;-69
2021/05/16 11:43:00;;;;;;;1.20;0.93;;;17.00;99.90;;;;;;5032946;28;20483;-70
2021/05/16 11:45:32;;;;;;;1.20;0.80;;;19.10;99.90;;;;;;5034543;28;20891;-69
2021/05/16 11:47:58;;;;;;;1.40;1.00;;;20.20;99.90;;;;;;5039843;28;21037;-70
2021/05/16 11:50:42;;;;;;;1.53;0.97;;;21.20;99.90;;;;;;5044445;28;20459;-70
2021/05/16 11:53:09;;;;;;;2.30;2.10;;;22.00;99.90;;;;;;5030421;28;21003;-70
2021/05/16 11:55:36;;;;;;;2.13;1.07;;;22.40;99.90;;;;;;5039910;28;20522;-70
2021/05/16 11:58:04;;;;;;;2.00;0.90;;;22.90;99.90;;;;;;5033876;28;20497;-70
2021/05/16 12:00:31;;;;;;;1.73;1.10;;;23.00;94.80;;;;;;5036118;28;20461;-70
2021/05/16 12:03:22;;;;;;;2.97;1.20;;;22.60;95.00;;;;;;5041135;28;21000;-70
2021/05/16 12:05:49;;;;;;;2.27;1.83;;;22.80;95.20;;;;;;5028106;28;20480;-70
2021/05/16 12:08:21;;;;;;;1.60;1.30;;;23.60;94.60;;;;;;5029907;28;20613;-70
2021/05/16 12:11:04;;;;;;;3.90;1.30;;;23.00;93.50;;;;;;5031731;28;20467;-69
2021/05/16 12:13:32;;;;;;;4.00;0.93;;;22.50;94.90;;;;;;5028918;28;20574;-69
2021/05/16 12:16:14;;;;;;;1.30;0.90;;;21.80;94.40;;;;;;5043007;28;20464;-70
2021/05/16 12:18:42;;;;;;;4.47;1.20;;;22.40;92.70;;;;;;5033164;28;20464;-70
2021/05/16 12:21:08;;;;;;;1.43;1.17;;;23.00;93.40;;;;;;5034538;28;20461;-70
2021/05/16 12:23:36;;;;;;;3.83;1.47;;;23.30;93.50;;;;;;5037878;28;21015;-70
2021/05/16 12:26:04;;;;;;;1.90;0.93;;;23.30;92.80;;;;;;5035833;28;20507;-70
2021/05/16 12:28:30;;;;;;;3.10;1.77;;;23.90;90.30;;;;;;5038913;28;20514;-71
2021/05/16 12:30:59;;;;;;;4.47;1.67;;;24.10;96.10;;;;;;5036241;28;20464;-69
2021/05/16 12:33:26;;;;;;;6.90;1.77;;;23.40;95.60;;;;;;5033747;28;20545;-70
2021/05/16 12:35:53;;;;;;;1.90;1.60;;;23.10;97.00;;;;;;5029781;28;20481;-69
2021/05/16 12:38:20;;;;;;;3.10;1.93;;;22.60;98.40;;;;;;5032451;28;20478;-69
2021/05/16 12:40:47;;;;;;;4.20;1.57;;;22.50;98.60;;;;;;5041837;28;20505;-69
2021/05/16 12:43:18;;;;;;;2.83;1.20;;;22.70;98.50;;;;;;5030972;28;20479;-70
2021/05/16 12:45:45;;;;;;;6.40;2.00;;;22.20;95.50;;;;;;5022784;28;20476;-68
2021/05/16 12:48:18;;;;;;;4.30;1.73;;;21.20;96.90;;;;;;5038810;28;20463;-70
2021/05/16 12:50:46;;;;;;;2.27;1.50;;;21.80;98.10;;;;;;5047351;28;21084;-69
2021/05/16 12:53:25;;;;;;;2.20;1.70;;;22.40;97.50;;;;;;5039707;28;20833;-69